createdAt,value
2023-02-15T00:00:09.143Z,7.08
2023-02-15T00:01:10.817Z,7.08
2023-02-15T00:02:12.392Z,7.09
2023-02-15T00:03:14.010Z,7.11
2023-02-15T00:04:16.173Z,7.10
2023-02-15T00:05:17.709Z,7.12
2023-02-15T00:06:19.151Z,7.12
2023-02-15T00:07:20.688Z,7.11
2023-02-15T00:08:22.137Z,7.12
2023-02-15T00:09:23.641Z,7.12
2023-02-15T00:10:25.197Z,7.13
2023-02-15T00:11:41.762Z,7.15
2023-02-15T00:12:43.863Z,7.16
2023-02-15T00:13:45.335Z,7.18
2023-02-15T00:14:46.780Z,7.18
2023-02-15T00:15:48.357Z,7.19
2023-02-15T00:16:50.389Z,7.20
2023-02-15T00:17:51.832Z,7.20
2023-02-15T00:18:53.407Z,7.22
2023-02-15T00:19:54.906Z,7.22
2023-02-15T00:20:56.502Z,7.23
2023-02-15T00:21:58.029Z,7.23
2023-02-15T00:22:59.852Z,7.25
2023-02-15T00:24:01.686Z,7.25
2023-02-15T00:25:03.244Z,7.25
2023-02-15T00:26:08.112Z,7.26
2023-02-15T00:27:10.284Z,7.25
2023-02-15T00:28:11.869Z,7.24
2023-02-15T00:29:13.665Z,7.24
2023-02-15T00:30:15.198Z,7.23
2023-02-15T00:31:16.846Z,7.21
2023-02-15T00:32:18.405Z,7.23
2023-02-15T00:33:19.896Z,7.22
2023-02-15T00:34:26.811Z,7.19
2023-02-15T00:35:28.324Z,7.20
2023-02-15T00:36:29.783Z,7.19
2023-02-15T00:37:31.286Z,7.20
2023-02-15T00:38:32.913Z,7.21
2023-02-15T00:39:34.446Z,7.21
2023-02-15T00:40:35.948Z,7.20
2023-02-15T00:41:37.399Z,7.19
2023-02-15T00:42:38.878Z,7.20
2023-02-15T00:43:40.401Z,7.19
2023-02-15T00:44:42.447Z,7.19
2023-02-15T00:45:43.966Z,7.18
2023-02-15T00:46:47.108Z,7.18
2023-02-15T00:47:48.625Z,7.17
2023-02-15T00:48:50.592Z,7.18
2023-02-15T00:49:52.072Z,7.18
2023-02-15T00:50:54.303Z,7.17
2023-02-15T00:51:55.777Z,7.18
2023-02-15T00:52:57.249Z,7.18
2023-02-15T00:53:58.767Z,7.18
2023-02-15T00:55:00.261Z,7.19
2023-02-15T00:56:02.009Z,7.17
2023-02-15T00:57:03.747Z,7.17
2023-02-15T00:58:05.228Z,7.18
2023-02-15T00:59:06.801Z,7.19
2023-02-15T01:00:08.721Z,7.20
2023-02-15T01:01:17.078Z,7.21
2023-02-15T01:02:19.714Z,7.22
2023-02-15T01:03:22.034Z,7.22
2023-02-15T01:04:23.568Z,7.21
2023-02-15T01:05:25.055Z,7.22
2023-02-15T01:06:26.568Z,7.23
2023-02-15T01:07:28.003Z,7.22
2023-02-15T01:08:29.616Z,7.23
2023-02-15T01:09:31.149Z,7.21
2023-02-15T01:10:32.632Z,7.19
2023-02-15T01:11:34.102Z,7.18
2023-02-15T01:12:35.599Z,7.16
2023-02-15T01:13:37.147Z,7.14
2023-02-15T01:14:38.643Z,7.14
2023-02-15T01:15:42.410Z,7.14
2023-02-15T01:16:45.141Z,7.13
2023-02-15T01:17:52.171Z,7.12
2023-02-15T01:18:55.557Z,7.13
2023-02-15T01:19:57.046Z,7.12
2023-02-15T01:20:58.607Z,7.11
2023-02-15T01:22:00.049Z,7.11
2023-02-15T01:23:01.575Z,7.11
2023-02-15T01:24:03.233Z,7.13
2023-02-15T01:25:04.909Z,7.12
2023-02-15T01:26:06.353Z,7.14
2023-02-15T01:27:07.876Z,7.12
2023-02-15T01:28:09.340Z,7.12
2023-02-15T01:29:10.837Z,7.13
2023-02-15T01:30:12.654Z,7.13
2023-02-15T01:31:15.294Z,7.13
2023-02-15T01:32:16.830Z,7.14
2023-02-15T01:33:19.016Z,7.15
2023-02-15T01:34:21.107Z,7.16
2023-02-15T01:35:22.598Z,7.16
2023-02-15T01:36:24.158Z,7.15
2023-02-15T01:37:27.026Z,7.13
2023-02-15T01:38:28.520Z,7.12
2023-02-15T01:39:30.007Z,7.10
2023-02-15T01:40:31.650Z,7.07
2023-02-15T01:41:33.799Z,7.04
2023-02-15T01:42:35.460Z,7.01
2023-02-15T01:43:40.980Z,7.02
2023-02-15T01:44:45.263Z,7.01
2023-02-15T01:45:48.304Z,6.99
2023-02-15T01:46:51.764Z,6.93
2023-02-15T01:48:00.553Z,6.93
2023-02-15T01:49:09.041Z,6.94
2023-02-15T01:50:16.329Z,6.92
2023-02-15T01:51:18.688Z,6.92
2023-02-15T01:52:20.234Z,6.92
2023-02-15T01:53:35.918Z,6.92
2023-02-15T01:54:37.555Z,6.94
2023-02-15T01:55:51.465Z,6.93
2023-02-15T01:56:53.433Z,6.93
2023-02-15T01:57:54.954Z,6.93
2023-02-15T01:58:58.773Z,6.95
2023-02-15T02:00:00.706Z,6.96
2023-02-15T02:01:04.917Z,6.97
2023-02-15T02:02:06.467Z,6.99
2023-02-15T02:03:07.977Z,6.99
2023-02-15T02:04:11.979Z,6.99
2023-02-15T02:05:13.468Z,7.01
2023-02-15T02:06:14.991Z,7.01
2023-02-15T02:07:17.089Z,7.01
2023-02-15T02:08:18.553Z,7.02
2023-02-15T02:09:20.075Z,7.04
2023-02-15T02:10:23.983Z,7.03
2023-02-15T02:11:25.596Z,7.05
2023-02-15T02:12:27.155Z,7.04
2023-02-15T02:13:28.600Z,7.04
2023-02-15T02:14:30.897Z,7.01
2023-02-15T02:15:35.269Z,7.00
2023-02-15T02:16:39.574Z,6.99
2023-02-15T02:17:51.014Z,6.96
2023-02-15T02:18:59.839Z,6.93
2023-02-15T02:20:16.122Z,6.90
2023-02-15T02:21:29.679Z,6.90
2023-02-15T02:22:31.154Z,6.89
2023-02-15T02:23:38.218Z,6.90
2023-02-15T02:24:39.641Z,6.91
2023-02-15T02:26:01.556Z,6.92
2023-02-15T02:27:06.226Z,6.94
2023-02-15T02:28:26.348Z,6.96
2023-02-15T02:29:33.383Z,6.98
2023-02-15T02:30:46.692Z,7.00
2023-02-15T02:32:04.373Z,7.01
2023-02-15T02:33:10.496Z,7.02
2023-02-15T02:34:21.627Z,7.03
2023-02-15T02:35:28.841Z,7.04
2023-02-15T02:36:33.317Z,7.04
2023-02-15T02:37:38.340Z,7.04
2023-02-15T02:38:58.597Z,7.03
2023-02-15T02:40:21.356Z,7.03
2023-02-15T02:41:28.677Z,7.05
2023-02-15T02:42:36.915Z,7.04
2023-02-15T02:43:50.348Z,7.04
2023-02-15T02:44:55.531Z,7.03
2023-02-15T02:45:58.373Z,7.04
2023-02-15T02:47:20.147Z,7.05
2023-02-15T02:48:22.713Z,7.06
2023-02-15T02:49:31.470Z,7.06
2023-02-15T02:50:32.965Z,7.07
2023-02-15T02:51:34.595Z,7.07
2023-02-15T02:52:38.694Z,7.08
2023-02-15T02:53:40.210Z,7.08
2023-02-15T02:54:41.653Z,7.09
2023-02-15T02:55:47.051Z,7.08
2023-02-15T02:56:48.727Z,7.09
2023-02-15T02:57:52.944Z,7.09
2023-02-15T02:59:06.420Z,7.09
2023-02-15T03:00:09.529Z,7.08
2023-02-15T03:01:14.757Z,7.09
2023-02-15T03:02:22.886Z,7.09
2023-02-15T03:03:27.182Z,7.09
2023-02-15T03:04:30.035Z,7.08
2023-02-15T03:05:31.648Z,7.09
2023-02-15T03:06:48.230Z,7.08
2023-02-15T03:07:51.464Z,7.05
2023-02-15T03:08:55.576Z,7.04
2023-02-15T03:09:58.082Z,7.04
2023-02-15T03:11:00.910Z,7.06
2023-02-15T03:12:03.569Z,7.04
2023-02-15T03:13:06.579Z,7.05
2023-02-15T03:14:08.126Z,7.04
2023-02-15T03:15:26.359Z,7.05
2023-02-15T03:16:29.177Z,7.05
2023-02-15T03:17:32.133Z,7.06
2023-02-15T03:18:36.692Z,7.07
2023-02-15T03:19:38.163Z,7.07
2023-02-15T03:20:40.451Z,7.06
2023-02-15T03:21:50.299Z,7.05
2023-02-15T03:22:52.562Z,7.05
2023-02-15T03:23:55.480Z,6.96
2023-02-15T03:25:07.867Z,7.04
2023-02-15T03:26:09.475Z,7.04
2023-02-15T03:27:13.134Z,7.04
2023-02-15T03:28:16.276Z,7.01
2023-02-15T03:29:18.266Z,7.02
2023-02-15T03:30:20.248Z,6.94
2023-02-15T03:31:21.979Z,6.89
2023-02-15T03:32:23.603Z,6.72
2023-02-15T03:33:25.858Z,6.67
2023-02-15T03:34:27.354Z,6.71
2023-02-15T03:35:32.221Z,6.69
2023-02-15T03:36:54.222Z,6.73
2023-02-15T03:37:56.463Z,6.76
2023-02-15T03:39:08.833Z,6.78
2023-02-15T03:40:35.306Z,6.81
2023-02-15T03:41:39.019Z,6.85
2023-02-15T03:42:40.485Z,6.85
2023-02-15T03:43:47.906Z,6.86
2023-02-15T03:44:56.827Z,6.88
2023-02-15T03:45:59.560Z,6.90
2023-02-15T03:47:07.569Z,6.90
2023-02-15T03:48:09.356Z,6.88
2023-02-15T03:49:11.753Z,6.88
2023-02-15T03:50:41.465Z,6.88
2023-02-15T03:51:46.628Z,6.87
2023-02-15T03:52:48.108Z,6.87
2023-02-15T03:53:49.592Z,6.89
2023-02-15T03:54:51.153Z,6.89
2023-02-15T03:55:54.601Z,6.88
2023-02-15T03:57:16.162Z,6.88
2023-02-15T03:58:36.469Z,6.88
2023-02-15T03:59:56.873Z,6.87
2023-02-15T04:01:23.187Z,6.86
2023-02-15T04:02:25.467Z,6.85
2023-02-15T04:03:29.669Z,6.86
2023-02-15T04:04:32.995Z,6.85
2023-02-15T04:05:34.546Z,6.85
2023-02-15T04:06:36.020Z,6.83
2023-02-15T04:07:37.535Z,6.83
2023-02-15T04:08:57.625Z,6.81
2023-02-15T04:10:17.557Z,6.83
2023-02-15T04:11:19.073Z,6.83
2023-02-15T04:12:20.519Z,6.74
2023-02-15T04:13:22.724Z,6.75
2023-02-15T04:14:42.776Z,6.78
2023-02-15T04:16:03.324Z,6.78
2023-02-15T04:17:08.508Z,6.79
2023-02-15T04:18:09.992Z,6.79
2023-02-15T04:19:30.411Z,6.80
2023-02-15T04:20:50.721Z,6.79
2023-02-15T04:22:10.697Z,6.79
2023-02-15T04:23:30.862Z,6.79
2023-02-15T04:24:51.033Z,6.81
2023-02-15T04:25:52.540Z,6.79
2023-02-15T04:26:53.998Z,6.81
2023-02-15T04:27:55.496Z,6.79
2023-02-15T04:28:57.200Z,6.81
2023-02-15T04:29:58.699Z,6.82
2023-02-15T04:31:00.213Z,6.82
2023-02-15T04:32:02.145Z,6.83
2023-02-15T04:33:03.661Z,6.84
2023-02-15T04:34:05.117Z,6.84
2023-02-15T04:35:07.064Z,6.85
2023-02-15T04:36:08.547Z,6.86
2023-02-15T04:37:11.294Z,6.86
2023-02-15T04:38:12.786Z,6.86
2023-02-15T04:39:14.645Z,6.86
2023-02-15T04:40:19.114Z,6.88
2023-02-15T04:41:20.941Z,6.89
2023-02-15T04:42:22.461Z,6.87
2023-02-15T04:43:23.978Z,6.86
2023-02-15T04:44:25.442Z,6.85
2023-02-15T04:45:28.097Z,6.83
2023-02-15T04:46:29.652Z,6.75
2023-02-15T04:47:31.141Z,6.67
2023-02-15T04:48:32.630Z,6.67
2023-02-15T04:49:34.105Z,6.65
2023-02-15T04:50:35.590Z,6.66
2023-02-15T04:51:37.163Z,6.60
2023-02-15T04:52:38.665Z,6.62
2023-02-15T04:53:40.177Z,6.62
2023-02-15T04:54:41.632Z,6.63
2023-02-15T04:55:43.141Z,6.66
2023-02-15T04:56:44.625Z,6.67
2023-02-15T04:57:46.843Z,6.70
2023-02-15T04:58:48.563Z,6.69
2023-02-15T04:59:50.053Z,6.69
2023-02-15T05:00:51.553Z,6.71
2023-02-15T05:01:53.082Z,6.68
2023-02-15T05:02:54.621Z,6.66
2023-02-15T05:03:56.297Z,6.67
2023-02-15T05:04:57.888Z,6.70
2023-02-15T05:05:59.609Z,6.72
2023-02-15T05:07:01.167Z,6.71
2023-02-15T05:08:02.673Z,6.71
2023-02-15T05:09:04.185Z,6.73
2023-02-15T05:10:05.961Z,6.74
2023-02-15T05:11:07.414Z,6.75
2023-02-15T05:12:09.499Z,6.75
2023-02-15T05:13:11.466Z,6.74
2023-02-15T05:14:12.977Z,6.72
2023-02-15T05:15:14.464Z,6.73
2023-02-15T05:16:15.981Z,6.73
2023-02-15T05:17:17.558Z,6.71
2023-02-15T05:18:19.549Z,6.74
2023-02-15T05:19:21.033Z,6.76
2023-02-15T05:20:22.539Z,6.76
2023-02-15T05:21:24.017Z,6.72
2023-02-15T05:22:27.012Z,6.69
2023-02-15T05:23:28.558Z,6.63
2023-02-15T05:24:48.748Z,6.60
2023-02-15T05:26:08.941Z,6.58
2023-02-15T05:27:31.861Z,6.55
2023-02-15T05:28:33.383Z,6.48
2023-02-15T05:29:34.888Z,6.46
2023-02-15T05:30:37.007Z,6.43
2023-02-15T05:31:39.047Z,6.42
2023-02-15T05:32:40.895Z,6.44
2023-02-15T05:33:42.501Z,6.48
2023-02-15T05:34:43.950Z,6.45
2023-02-15T05:35:45.464Z,6.47
2023-02-15T05:36:46.956Z,6.44
2023-02-15T05:37:48.491Z,6.37
2023-02-15T05:38:50.095Z,6.34
2023-02-15T05:39:51.600Z,6.31
2023-02-15T05:40:53.274Z,6.34
2023-02-15T05:41:54.923Z,6.37
2023-02-15T05:42:56.851Z,6.40
2023-02-15T05:43:58.352Z,6.41
2023-02-15T05:44:59.994Z,6.38
2023-02-15T05:46:01.891Z,6.40
2023-02-15T05:47:03.996Z,6.44
2023-02-15T05:48:05.558Z,6.44
2023-02-15T05:49:07.330Z,6.43
2023-02-15T05:50:09.133Z,6.43
2023-02-15T05:51:12.176Z,6.43
2023-02-15T05:52:13.683Z,6.44
2023-02-15T05:53:15.140Z,6.33
2023-02-15T05:54:16.631Z,6.42
2023-02-15T05:55:18.189Z,6.41
2023-02-15T05:56:19.678Z,6.42
2023-02-15T05:57:21.146Z,6.43
2023-02-15T05:58:22.634Z,6.40
2023-02-15T05:59:24.133Z,6.36
2023-02-15T06:00:26.341Z,6.32
2023-02-15T06:01:27.856Z,6.31
2023-02-15T06:02:29.385Z,6.32
2023-02-15T06:03:30.900Z,6.26
2023-02-15T06:04:32.430Z,6.28
2023-02-15T06:05:34.239Z,6.28
2023-02-15T06:06:35.850Z,6.25
2023-02-15T06:07:37.388Z,6.25
2023-02-15T06:08:39.001Z,6.25
2023-02-15T06:09:40.459Z,6.21
2023-02-15T06:10:41.938Z,6.15
2023-02-15T06:11:43.436Z,6.05
2023-02-15T06:12:45.319Z,6.03
2023-02-15T06:13:46.883Z,6.06
2023-02-15T06:14:48.439Z,6.04
2023-02-15T06:15:50.021Z,5.95
2023-02-15T06:16:51.548Z,5.98
2023-02-15T06:17:53.013Z,5.87
2023-02-15T06:18:54.562Z,5.82
2023-02-15T06:19:56.121Z,5.82
2023-02-15T06:20:57.592Z,5.88
2023-02-15T06:21:59.068Z,5.93
2023-02-15T06:23:00.809Z,6.00
2023-02-15T06:24:02.312Z,6.03
2023-02-15T06:25:04.531Z,5.94
2023-02-15T06:26:06.073Z,5.92
2023-02-15T06:27:07.510Z,5.97
2023-02-15T06:28:09.048Z,5.99
2023-02-15T06:29:10.511Z,6.01
2023-02-15T06:30:12.323Z,6.04
2023-02-15T06:31:13.911Z,6.09
2023-02-15T06:32:15.481Z,6.07
2023-02-15T06:33:16.965Z,6.06
2023-02-15T06:34:18.578Z,6.02
2023-02-15T06:35:20.045Z,5.92
2023-02-15T06:36:21.893Z,6.04
2023-02-15T06:37:23.342Z,6.03
2023-02-15T06:38:24.869Z,6.08
2023-02-15T06:39:26.408Z,6.12
2023-02-15T06:40:27.896Z,6.15
2023-02-15T06:41:29.401Z,6.17
2023-02-15T06:42:30.908Z,6.18
2023-02-15T06:43:32.371Z,6.21
2023-02-15T06:44:33.951Z,6.19
2023-02-15T06:45:35.492Z,6.20
2023-02-15T06:46:37.064Z,6.18
2023-02-15T06:47:38.649Z,6.15
2023-02-15T06:48:40.135Z,6.03
2023-02-15T06:49:41.658Z,6.03
2023-02-15T06:50:43.179Z,6.03
2023-02-15T06:51:44.662Z,6.08
2023-02-15T06:52:46.234Z,6.10
2023-02-15T06:53:47.733Z,6.13
2023-02-15T06:54:49.285Z,6.14
2023-02-15T06:55:50.831Z,6.15
2023-02-15T06:56:52.372Z,6.13
2023-02-15T06:57:53.873Z,6.11
2023-02-15T06:58:55.355Z,6.09
2023-02-15T06:59:57.928Z,6.07
2023-02-15T07:00:59.556Z,6.01
2023-02-15T07:02:01.057Z,5.96
2023-02-15T07:03:03.396Z,5.96
2023-02-15T07:04:05.143Z,5.97
2023-02-15T07:05:06.666Z,5.98
2023-02-15T07:06:09.509Z,6.02
2023-02-15T07:07:11.447Z,5.97
2023-02-15T07:08:12.978Z,5.93
2023-02-15T07:09:14.723Z,5.75
2023-02-15T07:10:16.349Z,5.65
2023-02-15T07:11:36.306Z,5.69
2023-02-15T07:12:43.785Z,5.77
2023-02-15T07:13:45.443Z,5.78
2023-02-15T07:14:46.971Z,5.69
2023-02-15T07:15:48.694Z,5.68
2023-02-15T07:16:50.245Z,5.65
2023-02-15T07:17:51.808Z,5.62
2023-02-15T07:18:53.277Z,5.69
2023-02-15T07:19:55.234Z,5.65
2023-02-15T07:20:56.720Z,5.62
2023-02-15T07:21:58.192Z,5.59
2023-02-15T07:22:59.966Z,5.60
2023-02-15T07:24:01.439Z,5.67
2023-02-15T07:25:03.688Z,5.71
2023-02-15T07:26:05.444Z,5.76
2023-02-15T07:27:07.729Z,5.81
2023-02-15T07:28:10.418Z,5.85
2023-02-15T07:29:11.953Z,5.90
2023-02-15T07:30:14.537Z,5.90
2023-02-15T07:31:16.083Z,5.89
2023-02-15T07:32:17.665Z,5.93
2023-02-15T07:33:24.828Z,5.97
2023-02-15T07:34:26.278Z,5.99
2023-02-15T07:35:28.276Z,5.98
2023-02-15T07:36:29.730Z,5.97
2023-02-15T07:37:31.195Z,6.00
2023-02-15T07:38:36.199Z,6.02
2023-02-15T07:39:37.725Z,6.06
2023-02-15T07:40:39.205Z,6.05
2023-02-15T07:41:40.732Z,6.01
2023-02-15T07:42:46.938Z,6.02
2023-02-15T07:43:48.385Z,6.00
2023-02-15T07:44:49.929Z,5.91
2023-02-15T07:45:51.422Z,5.90
2023-02-15T07:46:53.063Z,5.75
2023-02-15T07:47:54.591Z,5.73
2023-02-15T07:48:56.034Z,5.78
2023-02-15T07:49:57.482Z,5.82
2023-02-15T07:51:02.138Z,5.86
2023-02-15T07:52:03.611Z,5.84
2023-02-15T07:53:05.193Z,5.83
2023-02-15T07:54:06.662Z,5.83
2023-02-15T07:55:09.680Z,5.84
2023-02-15T07:56:11.746Z,5.81
2023-02-15T07:57:13.202Z,5.71
2023-02-15T07:58:14.697Z,5.71
2023-02-15T07:59:16.219Z,5.71
2023-02-15T08:00:18.451Z,5.66
2023-02-15T08:01:20.820Z,5.63
2023-02-15T08:02:22.322Z,5.57
2023-02-15T08:03:30.225Z,5.56
2023-02-15T08:04:32.175Z,5.59
2023-02-15T08:05:33.719Z,5.62
2023-02-15T08:06:35.673Z,5.61
2023-02-15T08:07:37.176Z,5.66
2023-02-15T08:08:38.828Z,5.71
2023-02-15T08:09:40.310Z,5.74
2023-02-15T08:11:00.578Z,5.72
2023-02-15T08:12:03.257Z,5.64
2023-02-15T08:13:04.722Z,5.69
2023-02-15T08:14:09.371Z,5.68
2023-02-15T08:15:10.968Z,5.67
2023-02-15T08:16:14.271Z,5.71
2023-02-15T08:17:15.881Z,5.74
2023-02-15T08:18:17.401Z,5.59
2023-02-15T08:19:28.661Z,5.68
2023-02-15T08:20:30.160Z,5.66
2023-02-15T08:21:31.805Z,5.67
2023-02-15T08:22:33.298Z,5.64
2023-02-15T08:23:34.761Z,5.64
2023-02-15T08:24:37.995Z,5.57
2023-02-15T08:25:39.487Z,5.54
2023-02-15T08:26:42.363Z,5.55
2023-02-15T08:27:44.161Z,5.55
2023-02-15T08:28:47.279Z,5.45
2023-02-15T08:29:48.804Z,5.31
2023-02-15T08:30:50.341Z,5.27
2023-02-15T08:31:59.790Z,5.28
2023-02-15T08:33:01.409Z,5.36
2023-02-15T08:34:02.917Z,5.41
2023-02-15T08:35:04.555Z,5.42
2023-02-15T08:36:06.391Z,5.43
2023-02-15T08:37:08.011Z,5.45
2023-02-15T08:38:09.572Z,5.48
2023-02-15T08:39:11.042Z,5.54
2023-02-15T08:40:14.512Z,5.54
2023-02-15T08:41:20.006Z,5.59
2023-02-15T08:42:21.957Z,5.61
2023-02-15T08:43:23.526Z,5.61
2023-02-15T08:44:25.044Z,5.61
2023-02-15T08:45:26.620Z,5.64
2023-02-15T08:46:29.008Z,5.66
2023-02-15T08:47:30.502Z,5.57
2023-02-15T08:48:32.027Z,5.52
2023-02-15T08:49:33.509Z,5.50
2023-02-15T08:50:35.066Z,5.46
2023-02-15T08:51:37.488Z,5.49
2023-02-15T08:52:39.009Z,5.55
2023-02-15T08:53:41.042Z,5.50
2023-02-15T08:54:42.577Z,5.53
2023-02-15T08:55:44.095Z,5.47
2023-02-15T08:56:45.739Z,5.35
2023-02-15T08:57:47.909Z,5.27
2023-02-15T08:58:49.454Z,5.05
2023-02-15T08:59:51.911Z,4.94
2023-02-15T09:00:53.443Z,4.93
2023-02-15T09:01:55.146Z,5.02
2023-02-15T09:02:56.685Z,5.08
2023-02-15T09:03:59.273Z,5.02
2023-02-15T09:05:00.733Z,5.01
2023-02-15T09:06:02.437Z,5.10
2023-02-15T09:07:05.473Z,5.19
2023-02-15T09:08:06.938Z,5.21
2023-02-15T09:09:08.752Z,5.26
2023-02-15T09:10:10.637Z,5.29
2023-02-15T09:11:12.858Z,5.31
2023-02-15T09:12:14.384Z,5.32
2023-02-15T09:13:15.843Z,5.31
2023-02-15T09:14:18.172Z,5.35
2023-02-15T09:15:19.681Z,5.39
2023-02-15T09:16:21.662Z,5.41
2023-02-15T09:17:23.165Z,5.44
2023-02-15T09:18:24.693Z,5.47
2023-02-15T09:19:26.175Z,5.45
2023-02-15T09:20:28.957Z,5.40
2023-02-15T09:21:30.478Z,5.36
2023-02-15T09:22:32.266Z,5.38
2023-02-15T09:23:33.785Z,5.37
2023-02-15T09:24:35.381Z,5.34
2023-02-15T09:25:36.830Z,5.29
2023-02-15T09:26:40.428Z,5.17
2023-02-15T09:27:42.246Z,5.16
2023-02-15T09:28:43.866Z,5.20
2023-02-15T09:29:45.374Z,5.24
2023-02-15T09:30:47.230Z,5.29
2023-02-15T09:31:50.123Z,5.32
2023-02-15T09:32:51.726Z,5.27
2023-02-15T09:33:53.241Z,5.33
2023-02-15T09:34:54.741Z,5.37
2023-02-15T09:35:57.873Z,5.39
2023-02-15T09:36:59.341Z,5.43
2023-02-15T09:38:01.617Z,5.43
2023-02-15T09:39:06.934Z,5.41
2023-02-15T09:40:08.616Z,5.37
2023-02-15T09:41:12.907Z,5.34
2023-02-15T09:42:21.564Z,5.31
2023-02-15T09:43:37.767Z,5.26
2023-02-15T09:44:41.986Z,5.27
2023-02-15T09:45:48.035Z,5.27
2023-02-15T09:46:58.118Z,5.32
2023-02-15T09:48:18.081Z,5.38
2023-02-15T09:49:22.604Z,5.31
2023-02-15T09:50:36.654Z,5.21
2023-02-15T09:51:42.300Z,5.18
2023-02-15T09:53:03.088Z,5.09
2023-02-15T09:54:09.346Z,5.06
2023-02-15T09:55:10.884Z,5.06
2023-02-15T09:56:16.781Z,5.05
2023-02-15T09:57:24.651Z,5.00
2023-02-15T09:58:38.148Z,4.95
2023-02-15T09:59:46.521Z,5.07
2023-02-15T10:00:53.987Z,5.17
2023-02-15T10:01:59.626Z,5.24
2023-02-15T10:03:01.095Z,5.25
2023-02-15T10:04:08.593Z,5.26
2023-02-15T10:05:10.116Z,5.14
2023-02-15T10:06:16.757Z,5.12
2023-02-15T10:07:37.391Z,5.09
2023-02-15T10:08:51.154Z,5.05
2023-02-15T10:09:58.729Z,5.09
2023-02-15T10:11:24.062Z,5.14
2023-02-15T10:12:31.066Z,5.11
2023-02-15T10:13:35.484Z,5.13
2023-02-15T10:14:39.983Z,5.08
2023-02-15T10:15:51.948Z,4.98
2023-02-15T10:16:53.457Z,4.94
2023-02-15T10:17:57.994Z,4.96
2023-02-15T10:19:02.290Z,5.00
2023-02-15T10:20:18.988Z,5.10
2023-02-15T10:21:22.974Z,5.15
2023-02-15T10:22:27.486Z,5.20
2023-02-15T10:23:28.953Z,5.23
2023-02-15T10:24:42.641Z,5.27
2023-02-15T10:25:51.971Z,5.35
2023-02-15T10:26:53.453Z,5.29
2023-02-15T10:27:54.956Z,5.31
2023-02-15T10:28:57.806Z,5.38
2023-02-15T10:30:02.403Z,5.43
2023-02-15T10:31:07.365Z,5.46
2023-02-15T10:32:12.396Z,5.45
2023-02-15T10:33:31.617Z,5.49
2023-02-15T10:34:40.192Z,5.51
2023-02-15T10:35:47.536Z,5.54
2023-02-15T10:36:48.996Z,5.53
2023-02-15T10:38:19.979Z,5.56
2023-02-15T10:39:21.664Z,5.50
2023-02-15T10:40:28.862Z,5.45
2023-02-15T10:41:35.365Z,5.31
2023-02-15T10:42:52.165Z,5.32
2023-02-15T10:43:56.559Z,5.36
2023-02-15T10:44:58.097Z,5.41
2023-02-15T10:46:04.091Z,5.43
2023-02-15T10:47:12.507Z,5.49
2023-02-15T10:48:17.910Z,5.55
2023-02-15T10:49:31.526Z,5.49
2023-02-15T10:50:47.596Z,5.55
2023-02-15T10:51:51.598Z,5.61
2023-02-15T10:53:00.585Z,5.64
2023-02-15T10:54:04.801Z,5.67
2023-02-15T10:55:09.945Z,5.70
2023-02-15T10:56:31.687Z,5.72
2023-02-15T10:57:42.418Z,5.70
2023-02-15T10:58:46.798Z,5.73
2023-02-15T11:00:03.475Z,5.75
2023-02-15T11:01:26.084Z,5.74
2023-02-15T11:02:57.055Z,5.57
2023-02-15T11:04:01.225Z,5.38
2023-02-15T11:05:11.794Z,5.36
2023-02-15T11:06:14.294Z,5.39
2023-02-15T11:07:15.803Z,5.39
2023-02-15T11:08:17.237Z,5.44
2023-02-15T11:09:19.258Z,5.51
2023-02-15T11:10:32.994Z,5.53
2023-02-15T11:11:40.253Z,5.54
2023-02-15T11:12:41.945Z,5.61
2023-02-15T11:13:45.310Z,5.58
2023-02-15T11:14:50.376Z,5.58
2023-02-15T11:15:55.209Z,5.64
2023-02-15T11:16:58.151Z,5.61
2023-02-15T11:18:19.902Z,5.64
2023-02-15T11:19:28.602Z,5.71
2023-02-15T11:20:33.331Z,5.73
2023-02-15T11:21:40.005Z,5.76
2023-02-15T11:22:41.594Z,5.79
2023-02-15T11:23:45.418Z,5.80
2023-02-15T11:24:47.117Z,5.83
2023-02-15T11:25:53.690Z,5.82
2023-02-15T11:26:58.724Z,5.82
2023-02-15T11:28:00.681Z,5.84
2023-02-15T11:29:13.191Z,5.87
2023-02-15T11:30:16.876Z,5.90
2023-02-15T11:31:19.684Z,5.94
2023-02-15T11:32:22.452Z,5.87
2023-02-15T11:33:34.772Z,5.74
2023-02-15T11:34:37.501Z,5.72
2023-02-15T11:35:42.672Z,5.74
2023-02-15T11:36:44.261Z,5.76
2023-02-15T11:37:56.185Z,5.76
2023-02-15T11:38:59.016Z,5.82
2023-02-15T11:40:01.635Z,5.87
2023-02-15T11:41:05.049Z,5.89
2023-02-15T11:42:07.978Z,5.91
2023-02-15T11:43:14.158Z,5.94
2023-02-15T11:44:17.278Z,5.84
2023-02-15T11:45:20.904Z,5.81
2023-02-15T11:46:22.866Z,5.81
2023-02-15T11:47:24.411Z,5.85
2023-02-15T11:48:25.870Z,5.84
2023-02-15T11:49:29.041Z,5.84
2023-02-15T11:50:31.016Z,5.82
2023-02-15T11:51:32.530Z,5.67
2023-02-15T11:52:34.018Z,5.68
2023-02-15T11:53:37.004Z,5.75
2023-02-15T11:54:40.923Z,5.81
2023-02-15T11:55:43.038Z,5.84
2023-02-15T11:56:44.549Z,5.89
2023-02-15T11:57:47.453Z,5.93
2023-02-15T11:58:53.531Z,5.94
2023-02-15T11:59:57.369Z,5.98
2023-02-15T12:01:10.431Z,6.01
2023-02-15T12:02:19.115Z,6.00
2023-02-15T12:03:23.630Z,6.04
2023-02-15T12:04:25.180Z,6.05
2023-02-15T12:05:26.620Z,6.00
2023-02-15T12:06:33.495Z,5.99
2023-02-15T12:07:39.048Z,5.95
2023-02-15T12:08:41.458Z,5.93
2023-02-15T12:09:54.847Z,5.93
2023-02-15T12:11:01.773Z,5.97
2023-02-15T12:12:25.772Z,6.00
2023-02-15T12:13:27.294Z,6.06
2023-02-15T12:14:29.076Z,6.09
2023-02-15T12:15:31.100Z,6.09
2023-02-15T12:16:33.663Z,6.07
2023-02-15T12:17:41.845Z,6.11
2023-02-15T12:18:45.407Z,6.03
2023-02-15T12:19:51.432Z,6.05
2023-02-15T12:20:52.955Z,6.07
2023-02-15T12:21:54.494Z,6.09
2023-02-15T12:23:03.056Z,6.11
2023-02-15T12:24:17.460Z,6.10
2023-02-15T12:25:22.653Z,6.11
2023-02-15T12:26:25.009Z,6.05
2023-02-15T12:27:27.787Z,6.03
2023-02-15T12:28:33.540Z,6.05
2023-02-15T12:29:41.866Z,5.97
2023-02-15T12:30:43.357Z,5.98
2023-02-15T12:31:45.388Z,6.00
2023-02-15T12:32:51.337Z,5.93
2023-02-15T12:33:54.897Z,5.92
2023-02-15T12:34:58.524Z,5.95
2023-02-15T12:36:02.486Z,6.01
2023-02-15T12:37:08.887Z,6.08
2023-02-15T12:38:10.367Z,6.12
2023-02-15T12:39:14.944Z,6.16
2023-02-15T12:40:20.963Z,6.17
2023-02-15T12:41:23.724Z,6.18
2023-02-15T12:42:25.711Z,6.19
2023-02-15T12:43:28.056Z,6.19
2023-02-15T12:44:30.645Z,6.22
2023-02-15T12:45:33.017Z,6.20
2023-02-15T12:46:41.795Z,6.19
2023-02-15T12:47:43.270Z,6.20
2023-02-15T12:48:44.779Z,6.17
2023-02-15T12:49:48.024Z,6.10
2023-02-15T12:50:55.477Z,6.03
2023-02-15T12:51:58.118Z,6.04
2023-02-15T12:53:09.647Z,6.09
2023-02-15T12:54:23.848Z,6.13
2023-02-15T12:55:26.567Z,6.15
2023-02-15T12:56:28.715Z,6.20
2023-02-15T12:57:31.192Z,6.23
2023-02-15T12:58:33.170Z,6.26
2023-02-15T12:59:34.672Z,6.26
2023-02-15T13:00:36.516Z,6.22
2023-02-15T13:01:38.348Z,6.27
2023-02-15T13:02:44.559Z,6.28
2023-02-15T13:04:08.779Z,6.25
2023-02-15T13:05:24.607Z,6.32
2023-02-15T13:06:26.665Z,6.37
2023-02-15T13:07:31.108Z,6.43
2023-02-15T13:08:32.852Z,6.44
2023-02-15T13:09:38.488Z,6.43
2023-02-15T13:11:03.546Z,6.39
2023-02-15T13:12:24.341Z,6.35
2023-02-15T13:13:27.684Z,6.38
2023-02-15T13:14:30.447Z,6.39
2023-02-15T13:15:38.514Z,6.39
2023-02-15T13:16:39.988Z,6.39
2023-02-15T13:17:44.849Z,6.40
2023-02-15T13:18:46.889Z,6.42
2023-02-15T13:19:49.086Z,6.38
2023-02-15T13:20:50.614Z,6.41
2023-02-15T13:21:52.787Z,6.43
2023-02-15T13:22:56.955Z,6.44
2023-02-15T13:24:02.614Z,6.44
2023-02-15T13:25:11.497Z,6.38
2023-02-15T13:26:15.630Z,6.37
2023-02-15T13:27:20.659Z,6.34
2023-02-15T13:28:23.622Z,6.30
2023-02-15T13:29:28.889Z,6.26
2023-02-15T13:30:36.586Z,6.26
2023-02-15T13:31:38.283Z,6.27
2023-02-15T13:32:41.798Z,6.30
2023-02-15T13:33:47.766Z,6.32
2023-02-15T13:34:49.463Z,6.33
2023-02-15T13:36:02.968Z,6.23
2023-02-15T13:37:18.069Z,6.25
2023-02-15T13:38:37.687Z,6.30
2023-02-15T13:39:40.577Z,6.31
2023-02-15T13:41:00.075Z,6.32
2023-02-15T13:42:04.548Z,6.34
2023-02-15T13:43:11.806Z,6.31
2023-02-15T13:44:25.368Z,6.29
2023-02-15T13:45:26.829Z,6.25
2023-02-15T13:46:33.381Z,6.25
2023-02-15T13:47:53.432Z,6.29
2023-02-15T13:49:00.790Z,6.33
2023-02-15T13:50:14.474Z,6.34
2023-02-15T13:51:18.742Z,6.35
2023-02-15T13:52:24.164Z,6.37
2023-02-15T13:53:43.865Z,6.37
2023-02-15T13:55:04.141Z,6.39
2023-02-15T13:56:24.128Z,6.45
2023-02-15T13:57:37.513Z,6.47
2023-02-15T13:58:58.124Z,6.47
2023-02-15T13:59:59.893Z,6.44
2023-02-15T14:01:09.937Z,6.44
2023-02-15T14:02:29.583Z,6.43
2023-02-15T14:03:43.275Z,6.44
2023-02-15T14:04:48.101Z,6.42
2023-02-15T14:06:16.252Z,6.44
2023-02-15T14:07:36.269Z,6.37
2023-02-15T14:08:37.713Z,6.31
2023-02-15T14:09:49.064Z,6.33
2023-02-15T14:11:09.240Z,6.31
2023-02-15T14:12:10.758Z,6.21
2023-02-15T14:13:14.973Z,6.26
2023-02-15T14:14:35.332Z,6.29
2023-02-15T14:15:39.719Z,6.33
2023-02-15T14:16:41.272Z,6.36
2023-02-15T14:17:48.830Z,6.41
2023-02-15T14:18:59.381Z,6.45
2023-02-15T14:20:02.546Z,6.42